createdAt,value
2017-08-02T00:02:02.417Z,15.70
2017-08-02T00:04:29.245Z,15.90
2017-08-02T00:06:56.250Z,16.27
2017-08-02T00:09:22.506Z,15.77
2017-08-02T00:11:48.769Z,15.13
2017-08-02T00:14:15.753Z,16.17
2017-08-02T00:16:41.978Z,16.60
2017-08-02T00:19:08.262Z,15.50
2017-08-02T00:21:34.535Z,16.70
2017-08-02T00:24:02.840Z,16.27
2017-08-02T00:26:29.961Z,15.73
2017-08-02T00:28:56.189Z,16.87
2017-08-02T00:31:22.410Z,14.13
2017-08-02T00:33:49.426Z,15.40
2017-08-02T00:36:15.642Z,14.67
2017-08-02T00:38:41.881Z,13.70
2017-08-02T00:41:08.152Z,11.57
2017-08-02T00:43:34.383Z,14.70
2017-08-02T00:46:00.602Z,14.07
2017-08-02T00:48:27.497Z,14.90
2017-08-02T00:50:53.718Z,15.10
2017-08-02T00:53:19.964Z,13.73
2017-08-02T00:55:46.218Z,14.30
2017-08-02T00:58:13.179Z,15.50
2017-08-02T01:00:40.467Z,13.83
2017-08-02T01:03:06.705Z,12.93
2017-08-02T01:05:32.973Z,14.07
2017-08-02T01:07:59.204Z,13.53
2017-08-02T01:10:26.286Z,14.13
2017-08-02T01:12:53.253Z,13.00
2017-08-02T01:15:19.481Z,15.27
2017-08-02T01:17:46.462Z,14.40
2017-08-02T01:20:12.693Z,15.00
2017-08-02T01:22:38.941Z,13.53
2017-08-02T01:25:06.354Z,14.03
2017-08-02T01:27:33.325Z,13.10
2017-08-02T01:29:59.553Z,13.57
2017-08-02T01:32:26.188Z,12.83
2017-08-02T01:34:52.441Z,13.30
2017-08-02T01:37:18.685Z,13.93
2017-08-02T01:39:51.979Z,13.37
2017-08-02T01:42:18.210Z,13.27
2017-08-02T01:44:44.437Z,14.10
2017-08-02T01:47:10.687Z,14.70
2017-08-02T01:49:36.930Z,14.33
2017-08-02T01:52:03.162Z,13.90
2017-08-02T01:54:29.973Z,15.80
2017-08-02T01:56:56.945Z,14.13
2017-08-02T01:59:23.240Z,14.70
2017-08-02T02:01:49.466Z,15.20
2017-08-02T02:04:15.693Z,13.77
2017-08-02T02:06:41.930Z,13.90
2017-08-02T02:09:08.169Z,13.67
2017-08-02T02:11:34.389Z,14.93
2017-08-02T02:14:00.611Z,13.33
2017-08-02T02:16:27.608Z,14.50
2017-08-02T02:18:54.596Z,12.60
2017-08-02T02:21:20.824Z,13.70
2017-08-02T03:07:20.742Z,13.23
2017-08-02T03:09:54.754Z,13.17
2017-08-02T03:12:22.627Z,12.03
2017-08-02T03:14:49.587Z,13.43
2017-08-02T03:17:15.830Z,12.50
2017-08-02T03:19:42.104Z,12.30
2017-08-02T03:22:08.337Z,12.90
2017-08-02T03:24:34.570Z,11.80
2017-08-02T03:27:02.448Z,12.67
2017-08-02T03:29:28.671Z,11.10
2017-08-02T03:31:54.933Z,12.97
2017-08-02T03:34:21.202Z,13.60
2017-08-02T03:36:47.426Z,11.43
2017-08-02T03:39:13.670Z,12.77
2017-08-02T03:41:39.947Z,12.30
2017-08-02T03:44:06.216Z,12.20
2017-08-02T03:46:33.191Z,11.80
2017-08-02T03:49:01.107Z,12.50
2017-08-02T03:51:27.347Z,12.17
2017-08-02T03:53:53.582Z,12.07
2017-08-02T03:56:20.636Z,11.50
2017-08-02T03:58:46.889Z,11.17
2017-08-02T04:01:13.139Z,12.13
2017-08-02T04:03:42.668Z,12.63
2017-08-02T04:06:08.900Z,11.63
2017-08-02T04:08:37.155Z,13.07
2017-08-02T04:11:05.353Z,12.13
2017-08-02T04:13:32.320Z,11.13
2017-08-02T04:15:58.558Z,11.53
2017-08-02T04:18:31.729Z,11.40
2017-08-02T04:20:57.982Z,11.20
2017-08-02T04:23:24.267Z,11.57
2017-08-02T04:25:51.357Z,11.50
2017-08-02T04:28:18.339Z,12.60
2017-08-02T04:30:44.571Z,13.43
2017-08-02T04:33:10.874Z,13.30
2017-08-02T04:35:37.158Z,15.97
2017-08-02T04:38:03.418Z,13.00
2017-08-02T04:40:36.624Z,12.80
2017-08-02T04:43:02.931Z,12.27
2017-08-02T04:45:29.188Z,11.97
2017-08-02T04:47:55.541Z,11.60
2017-08-02T04:50:21.826Z,12.37
2017-08-02T04:52:48.122Z,13.30
2017-08-02T04:55:14.457Z,12.17
2017-08-02T04:57:40.696Z,13.93
2017-08-02T05:00:07.695Z,12.90
2017-08-02T05:02:34.194Z,14.00
2017-08-02T05:05:00.447Z,14.23
2017-08-02T05:07:26.801Z,15.50
2017-08-02T05:09:53.608Z,16.57
2017-08-02T05:12:19.927Z,15.53
2017-08-02T05:14:53.046Z,14.23
2017-08-02T05:17:19.302Z,15.50
2017-08-02T05:19:45.567Z,16.40
2017-08-02T05:22:12.594Z,15.50
2017-08-02T05:24:38.832Z,15.33
2017-08-02T05:27:11.982Z,15.20
2017-08-02T05:29:38.225Z,15.83
2017-08-02T05:32:04.506Z,15.57
2017-08-02T05:34:31.095Z,14.90
2017-08-02T05:36:58.056Z,16.00
2017-08-02T05:39:24.338Z,15.70
2017-08-02T05:41:50.594Z,15.73
2017-08-02T05:44:17.582Z,16.50
2017-08-02T05:46:43.895Z,16.90
2017-08-02T05:49:10.898Z,14.83
2017-08-02T05:51:37.189Z,14.40
2017-08-02T05:54:03.531Z,14.53
2017-08-02T05:56:30.197Z,14.73
2017-08-02T05:58:56.469Z,14.90
2017-08-02T06:01:22.763Z,14.50
2017-08-02T06:03:49.055Z,14.63
2017-08-02T06:06:15.319Z,13.77
2017-08-02T06:08:41.587Z,14.27
2017-08-02T06:11:21.230Z,13.00
2017-08-02T06:13:47.886Z,13.00
2017-08-02T06:16:14.128Z,13.37
2017-08-02T06:18:41.174Z,12.90
2017-08-02T06:21:07.445Z,10.70
2017-08-02T06:23:33.725Z,11.37
2017-08-02T06:26:00.146Z,12.10
2017-08-02T06:28:26.455Z,12.03
2017-08-02T06:30:53.426Z,13.23
2017-08-02T06:33:19.969Z,12.00
2017-08-02T06:35:46.255Z,15.30
2017-08-02T06:38:12.517Z,13.90
2017-08-02T06:40:40.098Z,12.27
2017-08-02T06:43:07.101Z,13.33
2017-08-02T06:45:33.335Z,13.57
2017-08-02T06:47:59.597Z,14.70
2017-08-02T06:50:25.851Z,13.57
2017-08-02T06:52:52.844Z,15.60
2017-08-02T06:55:19.085Z,15.10
2017-08-02T06:57:45.340Z,17.90
2017-08-02T07:00:11.563Z,14.80
2017-08-02T07:02:37.855Z,18.37
2017-08-02T07:05:04.120Z,14.57
2017-08-02T07:07:30.366Z,14.93
2017-08-02T07:09:56.664Z,15.50
2017-08-02T07:12:22.915Z,17.70
2017-08-02T07:14:50.052Z,17.60
2017-08-02T07:17:16.374Z,15.00
2017-08-02T07:19:43.396Z,15.57
2017-08-02T07:22:09.650Z,16.30
2017-08-02T07:24:37.309Z,15.20
2017-08-02T07:27:03.547Z,14.63
2017-08-02T07:29:30.550Z,13.43
2017-08-02T07:31:56.825Z,14.80
2017-08-02T07:34:23.826Z,13.80
2017-08-02T07:36:50.092Z,15.10
2017-08-02T07:39:23.347Z,12.57
2017-08-02T07:41:49.602Z,12.57
2017-08-02T07:44:15.863Z,11.60
2017-08-02T07:46:42.770Z,12.73
2017-08-02T07:49:09.023Z,11.27
2017-08-02T07:51:35.303Z,12.60
2017-08-02T07:54:02.307Z,10.23
2017-08-02T07:56:28.581Z,10.80
2017-08-02T07:58:54.847Z,9.87
2017-08-02T08:01:21.102Z,9.30
2017-08-02T08:03:47.332Z,9.37
2017-08-02T08:06:20.617Z,11.63
2017-08-02T08:08:47.208Z,10.27
2017-08-02T08:11:13.495Z,9.20
2017-08-02T08:13:40.511Z,10.30
2017-08-02T08:16:07.716Z,9.60
2017-08-02T08:18:33.977Z,9.40
2017-08-02T08:21:00.935Z,7.83
2017-08-02T08:23:34.198Z,7.73
2017-08-02T08:26:00.430Z,7.77
2017-08-02T08:28:27.171Z,7.60
2017-08-02T08:30:53.429Z,9.53
2017-08-02T08:33:19.847Z,9.20
2017-08-02T08:35:46.117Z,11.40
2017-08-02T08:38:12.345Z,10.50
2017-08-02T08:40:38.582Z,7.80
2017-08-02T08:43:04.823Z,8.07
2017-08-02T08:45:31.050Z,6.37
2017-08-02T08:47:57.949Z,7.20
2017-08-02T08:50:24.928Z,8.70
2017-08-02T08:52:51.181Z,7.93
2017-08-02T08:55:17.472Z,7.20
2017-08-02T08:57:44.476Z,7.20
2017-08-02T09:00:10.724Z,6.83
2017-08-02T09:02:36.994Z,5.80
2017-08-02T09:05:03.986Z,5.37
2017-08-02T09:07:30.230Z,7.00
2017-08-02T09:09:56.514Z,7.30
2017-08-02T09:12:23.488Z,5.37
2017-08-02T09:14:49.731Z,4.97
2017-08-02T09:17:16.977Z,5.60
2017-08-02T09:19:43.218Z,6.30
2017-08-02T09:22:09.460Z,6.20
2017-08-02T09:24:35.754Z,5.30
2017-08-02T09:27:02.004Z,5.73
2017-08-02T09:29:28.987Z,6.00
2017-08-02T09:31:55.318Z,6.20
2017-08-02T09:34:21.586Z,5.50
2017-08-02T09:36:47.823Z,6.83
2017-08-02T09:39:14.107Z,7.73
2017-08-02T09:41:41.085Z,6.30
2017-08-02T09:44:07.330Z,6.70
2017-08-02T09:46:33.731Z,6.00
2017-08-02T09:49:07.598Z,7.67
2017-08-02T09:51:33.828Z,7.50
2017-08-02T09:54:00.075Z,6.87
2017-08-02T09:56:26.316Z,7.40
2017-08-02T09:58:53.347Z,8.20
2017-08-02T10:01:19.646Z,7.60
2017-08-02T10:03:45.882Z,8.00
2017-08-02T10:06:12.159Z,15.13
2017-08-02T10:08:38.405Z,30.60
2017-08-02T10:11:05.407Z,13.40
2017-08-02T10:13:32.558Z,14.60
2017-08-02T10:15:58.790Z,12.00
2017-08-02T10:18:26.142Z,9.57
2017-08-02T10:20:52.470Z,8.73
2017-08-02T10:23:19.442Z,9.87
2017-08-02T10:25:45.665Z,8.10
2017-08-02T10:28:11.910Z,8.33
2017-08-02T10:30:38.146Z,6.37
2017-08-02T10:33:04.419Z,6.03
2017-08-02T10:35:30.823Z,6.80
2017-08-02T10:37:57.115Z,5.83
2017-08-02T10:40:23.360Z,6.20
2017-08-02T10:42:50.371Z,6.00
2017-08-02T10:45:16.646Z,6.10
2017-08-02T10:47:43.632Z,6.00
2017-08-02T10:50:09.918Z,5.60
2017-08-02T10:52:36.226Z,5.70
2017-08-02T10:55:02.476Z,5.83
2017-08-02T10:57:29.603Z,6.77
2017-08-02T10:59:55.857Z,6.83
2017-08-02T11:02:22.103Z,6.43
2017-08-02T11:04:48.582Z,5.43
2017-08-02T11:07:14.827Z,5.57
2017-08-02T11:09:41.082Z,6.27
2017-08-02T11:12:07.355Z,8.13
2017-08-02T11:14:33.613Z,5.87
2017-08-02T11:17:00.602Z,5.27
2017-08-02T11:19:28.291Z,5.80
2017-08-02T11:21:54.557Z,5.40
2017-08-02T11:24:20.795Z,5.70
2017-08-02T11:26:47.055Z,5.77
2017-08-02T11:29:13.303Z,5.40
2017-08-02T11:31:39.580Z,5.73
2017-08-02T11:34:06.624Z,6.07
2017-08-02T11:36:33.650Z,5.80
2017-08-02T11:38:59.879Z,6.17
2017-08-02T11:41:26.921Z,4.77
2017-08-02T11:43:53.182Z,6.50
2017-08-02T11:46:19.418Z,6.43
2017-08-02T11:48:45.694Z,6.07
2017-08-02T11:51:11.948Z,6.30
2017-08-02T11:53:38.923Z,6.80
2017-08-02T11:56:05.159Z,7.80
2017-08-02T11:58:31.435Z,7.00
2017-08-02T12:00:57.716Z,5.27
2017-08-02T12:03:25.595Z,5.43
2017-08-02T12:05:51.827Z,4.63
2017-08-02T12:08:18.074Z,4.50
2017-08-02T12:10:44.328Z,5.47
2017-08-02T12:13:10.558Z,6.37
2017-08-02T12:15:36.805Z,5.77
2017-08-02T12:18:03.131Z,6.00
2017-08-02T12:20:40.970Z,4.40
2017-08-02T12:23:08.167Z,4.67
2017-08-02T12:25:34.407Z,3.90
2017-08-02T12:28:00.686Z,4.73
2017-08-02T12:30:27.065Z,6.00
2017-08-02T12:32:53.302Z,5.20
2017-08-02T12:35:19.560Z,5.13
2017-08-02T12:37:45.830Z,3.70
2017-08-02T12:40:12.082Z,4.30
2017-08-02T12:42:38.347Z,4.63
2017-08-02T12:47:37.380Z,6.40
2017-08-02T12:50:03.610Z,10.07
2017-08-02T12:52:29.867Z,6.33
2017-08-02T12:54:56.129Z,5.90
2017-08-02T12:57:22.366Z,5.07
2017-08-02T12:59:49.371Z,4.80
2017-08-02T13:02:15.611Z,6.00
2017-08-02T13:04:41.883Z,5.90
2017-08-02T13:07:08.871Z,7.03
2017-08-02T13:09:35.712Z,6.40
2017-08-02T13:12:02.679Z,12.70
2017-08-02T13:14:28.914Z,9.47
2017-08-02T13:16:55.171Z,11.97
2017-08-02T13:19:21.423Z,6.23
2017-08-02T13:21:48.838Z,5.97
2017-08-02T13:24:15.270Z,6.10
2017-08-02T13:26:41.514Z,9.10
2017-08-02T13:29:07.750Z,7.43
2017-08-02T13:31:34.587Z,6.40
2017-08-02T13:34:00.845Z,5.60
2017-08-02T13:36:27.895Z,5.03
2017-08-02T13:38:54.163Z,6.27
2017-08-02T13:41:20.411Z,7.10
2017-08-02T13:43:46.645Z,6.63
2017-08-02T13:46:12.936Z,7.13
2017-08-02T13:48:39.182Z,5.10
2017-08-02T13:51:05.453Z,5.60
2017-08-02T13:53:32.653Z,7.80
2017-08-02T13:55:58.886Z,7.60
2017-08-02T13:58:25.130Z,8.77
2017-08-02T14:00:51.395Z,9.07
2017-08-02T14:03:17.657Z,9.93
2017-08-02T14:05:43.891Z,11.37
2017-08-02T14:08:10.908Z,10.30
2017-08-02T14:10:37.164Z,9.33
2017-08-02T14:13:03.436Z,10.50
2017-08-02T14:15:29.751Z,10.87
2017-08-02T14:17:56.755Z,11.33
2017-08-02T14:20:22.991Z,12.00
2017-08-02T14:22:49.937Z,12.83
2017-08-02T14:25:16.163Z,15.60
2017-08-02T14:27:42.428Z,17.27
2017-08-02T14:30:08.698Z,24.73
2017-08-02T14:32:35.688Z,39.70
2017-08-02T14:35:01.936Z,75.13
2017-08-02T14:37:28.737Z,26.77
2017-08-02T14:39:55.727Z,25.13
2017-08-02T14:42:22.002Z,17.60
2017-08-02T14:44:48.395Z,15.07
2017-08-02T14:47:14.651Z,15.50
2017-08-02T14:49:40.914Z,13.50
2017-08-02T14:52:07.167Z,13.93
2017-08-02T14:54:33.397Z,14.97
2017-08-02T14:57:00.382Z,12.10
2017-08-02T14:59:27.144Z,13.00
2017-08-02T15:01:53.380Z,14.83
2017-08-02T15:04:19.616Z,23.93
2017-08-02T15:06:46.138Z,20.33
2017-08-02T15:09:12.388Z,17.47
2017-08-02T15:11:38.635Z,15.53
2017-08-02T15:14:04.885Z,14.00
2017-08-02T15:16:31.139Z,15.27
2017-08-02T15:18:57.404Z,14.23
2017-08-02T15:21:24.253Z,13.93
2017-08-02T15:23:51.591Z,16.70
2017-08-02T15:26:18.563Z,19.03
2017-08-02T15:28:44.826Z,27.83
2017-08-02T15:31:11.092Z,16.30
2017-08-02T15:33:37.344Z,21.80
2017-08-02T15:36:03.621Z,20.40
2017-08-02T15:38:29.854Z,18.03
2017-08-02T15:40:56.098Z,29.00
2017-08-02T15:43:22.719Z,20.60
2017-08-02T15:45:49.703Z,22.40
2017-08-02T15:48:16.043Z,20.53
2017-08-02T15:50:42.450Z,22.80
2017-08-02T15:53:08.732Z,21.90
2017-08-02T15:55:34.962Z,22.50
2017-08-02T15:58:01.227Z,20.83
2017-08-02T16:00:28.215Z,22.30
2017-08-02T16:02:54.490Z,22.20
2017-08-02T16:05:21.282Z,23.03
2017-08-02T16:07:47.555Z,21.90
2017-08-02T16:10:13.818Z,23.33
2017-08-02T16:12:40.115Z,23.20
2017-08-02T16:15:06.401Z,31.70
2017-08-02T16:17:32.690Z,31.63
2017-08-02T16:19:58.954Z,29.17
2017-08-02T16:22:25.207Z,28.13
2017-08-02T16:24:52.726Z,27.17
2017-08-02T16:27:19.140Z,28.60
2017-08-02T16:29:45.391Z,31.57
2017-08-02T16:32:11.661Z,31.90
2017-08-02T16:34:38.710Z,31.00
2017-08-02T16:37:04.998Z,27.80
2017-08-02T16:39:31.251Z,25.37
2017-08-02T16:41:57.535Z,25.70
2017-08-02T16:44:23.783Z,21.60
2017-08-02T16:46:50.911Z,22.40
2017-08-02T16:49:17.266Z,21.07
2017-08-02T16:51:44.287Z,19.30
2017-08-02T16:54:10.525Z,18.50
2017-08-02T16:56:36.927Z,16.90
2017-08-02T16:59:03.234Z,16.93
2017-08-02T17:01:29.513Z,13.80
2017-08-02T17:03:55.800Z,12.90
2017-08-02T17:06:22.794Z,10.50
2017-08-02T17:08:49.078Z,10.67
2017-08-02T17:11:15.419Z,11.87
2017-08-02T17:13:41.714Z,9.20
2017-08-02T17:16:07.970Z,9.43
2017-08-02T17:18:34.328Z,9.87
2017-08-02T17:21:01.351Z,8.90
2017-08-02T17:23:27.586Z,9.03
2017-08-02T17:25:54.206Z,12.17
2017-08-02T17:28:20.454Z,14.07
2017-08-02T17:30:46.716Z,10.77
2017-08-02T17:33:13.827Z,10.33
2017-08-02T17:35:40.107Z,10.67
2017-08-02T17:38:06.342Z,9.53
2017-08-02T17:40:32.619Z,12.67
2017-08-02T17:42:58.873Z,14.47
2017-08-02T17:45:25.127Z,8.70
2017-08-02T17:47:51.406Z,5.10
2017-08-02T17:50:17.692Z,4.20
2017-08-02T17:52:43.951Z,3.80
2017-08-02T17:55:11.006Z,3.67
2017-08-02T17:57:37.260Z,3.97
2017-08-02T18:00:04.285Z,4.10
2017-08-02T18:02:30.636Z,4.70
2017-08-02T18:04:57.684Z,4.43
2017-08-02T18:07:23.946Z,6.07
2017-08-02T18:09:50.967Z,5.20
2017-08-02T18:12:17.241Z,5.33
2017-08-02T18:14:44.231Z,5.23
2017-08-02T18:17:11.016Z,4.00
2017-08-02T18:19:38.027Z,4.70
2017-08-02T18:22:04.808Z,4.60
2017-08-02T18:24:31.188Z,25.90
2017-08-02T18:26:58.473Z,28.60
2017-08-02T18:29:24.809Z,31.67
2017-08-02T18:31:51.106Z,53.00
2017-08-02T18:34:17.334Z,25.57
2017-08-02T18:36:44.384Z,13.50
2017-08-02T18:39:11.429Z,22.07
2017-08-02T18:41:42.899Z,18.00
2017-08-02T18:44:10.178Z,16.90
2017-08-02T18:46:36.420Z,12.10
2017-08-02T18:49:02.685Z,7.73
2017-08-02T18:51:28.995Z,5.97
2017-08-02T18:53:55.247Z,5.80
2017-08-02T18:56:21.503Z,23.17
2017-08-02T18:58:48.619Z,36.17
2017-08-02T19:01:14.882Z,55.57
2017-08-02T19:03:41.174Z,34.80
2017-08-02T19:06:07.443Z,9.40
2017-08-02T19:08:33.711Z,6.93
2017-08-02T19:11:00.012Z,5.70
2017-08-02T19:13:26.345Z,6.30
2017-08-02T19:15:52.652Z,5.80
2017-08-02T19:18:18.950Z,5.97
2017-08-02T19:20:45.694Z,5.50
2017-08-02T19:23:11.933Z,7.67
2017-08-02T19:25:38.948Z,5.77
2017-08-02T19:28:18.383Z,6.00
2017-08-02T19:30:45.311Z,6.03
2017-08-02T19:33:11.615Z,4.93
2017-08-02T19:35:38.658Z,5.77
2017-08-02T19:38:04.895Z,6.33
2017-08-02T19:40:31.154Z,6.00
2017-08-02T19:42:57.961Z,7.30
2017-08-02T19:45:24.197Z,38.50
2017-08-02T19:47:50.443Z,106.00
2017-08-02T19:50:16.920Z,74.07
2017-08-02T19:52:43.905Z,11.80
2017-08-02T19:55:10.156Z,6.97
2017-08-02T19:57:36.427Z,6.83
2017-08-02T20:00:03.479Z,8.10
2017-08-02T20:02:30.480Z,6.70
2017-08-02T20:04:57.502Z,6.83
2017-08-02T20:07:24.491Z,7.53
2017-08-02T20:09:50.779Z,6.90
2017-08-02T20:12:17.083Z,7.30
2017-08-02T20:14:43.324Z,7.23
2017-08-02T20:17:09.558Z,7.63
2017-08-02T20:19:35.816Z,6.70
2017-08-02T20:22:02.807Z,8.50
2017-08-02T20:24:29.066Z,8.00
2017-08-02T20:26:55.870Z,7.43
2017-08-02T20:29:22.166Z,8.00
2017-08-02T20:32:02.374Z,8.77
2017-08-02T20:34:39.539Z,9.30
2017-08-02T20:37:05.970Z,9.70
2017-08-02T20:39:32.935Z,9.17
2017-08-02T20:41:59.166Z,8.50
2017-08-02T20:44:34.095Z,9.83
2017-08-02T20:47:01.105Z,11.90
2017-08-02T20:49:27.349Z,10.70
2017-08-02T20:51:54.383Z,47.47
2017-08-02T20:54:20.627Z,37.37
2017-08-02T20:56:46.864Z,23.57
2017-08-02T20:59:13.148Z,17.00
2017-08-02T21:01:39.418Z,17.10
2017-08-02T21:04:05.675Z,17.63
2017-08-02T21:06:33.590Z,17.07
2017-08-02T21:08:59.847Z,17.50
2017-08-02T21:11:26.074Z,17.70
2017-08-02T21:13:52.313Z,17.10
2017-08-02T21:16:18.550Z,16.43
2017-08-02T21:18:44.824Z,18.10
2017-08-02T21:21:12.010Z,19.40
2017-08-02T21:23:38.973Z,19.40
2017-08-02T21:26:05.204Z,22.00
2017-08-02T21:28:31.510Z,21.97
2017-08-02T21:30:57.755Z,24.70
2017-08-02T21:33:24.806Z,25.53
2017-08-02T21:35:53.085Z,30.30
2017-08-02T21:38:20.109Z,34.17
2017-08-02T21:40:46.347Z,40.23
2017-08-02T21:43:12.610Z,25.10
2017-08-02T21:45:39.603Z,21.93
2017-08-02T21:48:05.831Z,22.67
2017-08-02T21:50:32.878Z,24.50
2017-08-02T21:52:59.108Z,23.53
2017-08-02T21:55:25.366Z,22.87
2017-08-02T21:57:51.630Z,20.63
2017-08-02T22:00:17.868Z,20.27
2017-08-02T22:02:44.147Z,21.37
2017-08-02T22:05:10.421Z,22.20
2017-08-02T22:07:36.643Z,21.23
2017-08-02T22:10:02.926Z,19.77
2017-08-02T22:12:30.818Z,20.03
2017-08-02T22:14:57.806Z,38.43
2017-08-02T22:17:24.037Z,23.30
2017-08-02T22:19:50.452Z,18.40
2017-08-02T22:22:16.709Z,17.10
2017-08-02T22:24:42.967Z,17.43
2017-08-02T22:27:09.252Z,15.57
2017-08-02T22:29:35.500Z,14.47
2017-08-02T22:32:01.731Z,14.27
2017-08-02T22:34:28.042Z,12.43
2017-08-02T22:36:55.419Z,11.93
2017-08-02T22:39:21.659Z,12.10
2017-08-02T22:41:47.931Z,10.27
2017-08-02T22:44:14.204Z,10.80
2017-08-02T22:46:41.200Z,11.40
2017-08-02T22:49:07.471Z,11.30
2017-08-02T22:51:34.475Z,10.63
2017-08-02T22:54:00.742Z,10.77
2017-08-02T22:56:27.546Z,8.90
2017-08-02T22:58:53.815Z,8.93
2017-08-02T23:01:20.051Z,9.80
2017-08-02T23:03:46.460Z,9.73
2017-08-02T23:06:12.708Z,8.20
2017-08-02T23:08:38.979Z,9.60
2017-08-02T23:11:05.262Z,8.70
2017-08-02T23:13:31.527Z,8.40
2017-08-02T23:15:57.756Z,8.73
2017-08-02T23:18:24.375Z,8.57
2017-08-02T23:20:50.627Z,8.50
2017-08-02T23:23:16.850Z,8.80
2017-08-02T23:25:43.107Z,9.57
2017-08-02T23:28:09.358Z,7.80
2017-08-02T23:30:35.631Z,9.00
2017-08-02T23:33:02.090Z,8.60
2017-08-02T23:35:28.343Z,10.53
2017-08-02T23:37:55.445Z,8.43
2017-08-02T23:40:22.519Z,9.07
2017-08-02T23:42:49.481Z,9.37
2017-08-02T23:45:23.335Z,8.30
2017-08-02T23:47:49.566Z,7.90
2017-08-02T23:50:15.811Z,8.70
2017-08-02T23:52:42.080Z,7.60
2017-08-02T23:55:09.060Z,10.20
2017-08-02T23:57:35.288Z,9.03
